sensor_id;sensor_type;location;lat;lon;timestamp;P1;durP1;ratioP1;P2;durP2;ratioP2
23590;SDS011;11973;52.098;7.582;2023-03-12T00:00:31;9.82;;;8.82;;
23590;SDS011;11973;52.098;7.582;2023-03-12T00:02:56;9.68;;;8.88;;
23590;SDS011;11973;52.098;7.582;2023-03-12T00:05:22;9.63;;;8.85;;
23590;SDS011;11973;52.098;7.582;2023-03-12T00:07:50;8.82;;;8.20;;
23590;SDS011;11973;52.098;7.582;2023-03-12T00:10:16;8.68;;;7.97;;
23590;SDS011;11973;52.098;7.582;2023-03-12T00:12:43;8.73;;;8.10;;
23590;SDS011;11973;52.098;7.582;2023-03-12T00:15:09;9.10;;;8.50;;
23590;SDS011;11973;52.098;7.582;2023-03-12T00:17:34;8.75;;;8.07;;
23590;SDS011;11973;52.098;7.582;2023-03-12T00:20:00;8.65;;;8.05;;
23590;SDS011;11973;52.098;7.582;2023-03-12T00:22:26;9.27;;;8.35;;
23590;SDS011;11973;52.098;7.582;2023-03-12T00:24:53;8.57;;;7.88;;
23590;SDS011;11973;52.098;7.582;2023-03-12T00:27:20;8.82;;;8.13;;
23590;SDS011;11973;52.098;7.582;2023-03-12T00:29:47;9.52;;;8.63;;
23590;SDS011;11973;52.098;7.582;2023-03-12T00:32:14;8.95;;;8.25;;
23590;SDS011;11973;52.098;7.582;2023-03-12T00:34:40;9.25;;;8.45;;
23590;SDS011;11973;52.098;7.582;2023-03-12T00:37:06;8.30;;;7.80;;
23590;SDS011;11973;52.098;7.582;2023-03-12T00:39:32;8.75;;;8.13;;
23590;SDS011;11973;52.098;7.582;2023-03-12T00:41:58;8.73;;;8.02;;
23590;SDS011;11973;52.098;7.582;2023-03-12T00:44:24;8.63;;;8.10;;
23590;SDS011;11973;52.098;7.582;2023-03-12T00:46:50;8.45;;;7.82;;
23590;SDS011;11973;52.098;7.582;2023-03-12T00:49:16;8.35;;;7.72;;
23590;SDS011;11973;52.098;7.582;2023-03-12T00:51:42;8.10;;;7.35;;
23590;SDS011;11973;52.098;7.582;2023-03-12T00:54:08;8.35;;;7.85;;
23590;SDS011;11973;52.098;7.582;2023-03-12T00:56:33;7.72;;;7.32;;
23590;SDS011;11973;52.098;7.582;2023-03-12T00:58:59;8.05;;;7.65;;
23590;SDS011;11973;52.098;7.582;2023-03-12T05:02:05;6.65;;;6.45;;
23590;SDS011;11973;52.098;7.582;2023-03-12T05:04:31;6.47;;;6.03;;
23590;SDS011;11973;52.098;7.582;2023-03-12T05:06:58;6.13;;;5.93;;
23590;SDS011;11973;52.098;7.582;2023-03-12T05:09:24;6.57;;;6.20;;
23590;SDS011;11973;52.098;7.582;2023-03-12T05:11:50;6.53;;;6.10;;
23590;SDS011;11973;52.098;7.582;2023-03-12T05:14:18;6.32;;;5.88;;
23590;SDS011;11973;52.098;7.582;2023-03-12T05:16:45;6.35;;;5.95;;
23590;SDS011;11973;52.098;7.582;2023-03-12T05:19:11;6.20;;;5.93;;
23590;SDS011;11973;52.098;7.582;2023-03-12T05:21:38;6.60;;;6.00;;
23590;SDS011;11973;52.098;7.582;2023-03-12T05:24:06;6.40;;;6.05;;
23590;SDS011;11973;52.098;7.582;2023-03-12T05:26:33;6.75;;;6.32;;
23590;SDS011;11973;52.098;7.582;2023-03-12T05:29:06;5.75;;;5.40;;
23590;SDS011;11973;52.098;7.582;2023-03-12T05:31:33;5.90;;;5.40;;
23590;SDS011;11973;52.098;7.582;2023-03-12T05:34:00;5.72;;;5.40;;
23590;SDS011;11973;52.098;7.582;2023-03-12T05:36:27;5.55;;;5.35;;
23590;SDS011;11973;52.098;7.582;2023-03-12T05:38:53;5.50;;;5.30;;
23590;SDS011;11973;52.098;7.582;2023-03-12T05:43:48;5.53;;;5.32;;
23590;SDS011;11973;52.098;7.582;2023-03-12T05:46:15;5.85;;;5.55;;
23590;SDS011;11973;52.098;7.582;2023-03-12T05:48:41;5.00;;;4.88;;
23590;SDS011;11973;52.098;7.582;2023-03-12T05:51:07;4.95;;;4.55;;
23590;SDS011;11973;52.098;7.582;2023-03-12T05:53:33;4.80;;;4.65;;
23590;SDS011;11973;52.098;7.582;2023-03-12T05:56:07;4.47;;;4.20;;
23590;SDS011;11973;52.098;7.582;2023-03-12T05:58:35;4.55;;;4.45;;
23590;SDS011;11973;52.098;7.582;2023-03-12T06:01:02;4.32;;;4.13;;
23590;SDS011;11973;52.098;7.582;2023-03-12T06:03:35;4.38;;;4.05;;
23590;SDS011;11973;52.098;7.582;2023-03-12T06:06:01;4.20;;;3.80;;
23590;SDS011;11973;52.098;7.582;2023-03-12T06:08:27;4.10;;;4.00;;
23590;SDS011;11973;52.098;7.582;2023-03-12T06:10:52;4.30;;;3.90;;
23590;SDS011;11973;52.098;7.582;2023-03-12T06:13:20;4.28;;;4.07;;
23590;SDS011;11973;52.098;7.582;2023-03-12T06:15:47;4.05;;;3.95;;
23590;SDS011;11973;52.098;7.582;2023-03-12T06:18:13;3.60;;;3.50;;
23590;SDS011;11973;52.098;7.582;2023-03-12T06:20:40;3.70;;;3.50;;
23590;SDS011;11973;52.098;7.582;2023-03-12T06:23:06;3.60;;;3.50;;
23590;SDS011;11973;52.098;7.582;2023-03-12T06:25:32;4.47;;;3.22;;
23590;SDS011;11973;52.098;7.582;2023-03-12T06:27:58;3.50;;;3.35;;
23590;SDS011;11973;52.098;7.582;2023-03-12T06:30:24;3.97;;;3.65;;
23590;SDS011;11973;52.098;7.582;2023-03-12T06:32:51;3.15;;;3.05;;
23590;SDS011;11973;52.098;7.582;2023-03-12T06:35:17;3.72;;;3.63;;
23590;SDS011;11973;52.098;7.582;2023-03-12T06:37:43;3.58;;;3.38;;
23590;SDS011;11973;52.098;7.582;2023-03-12T06:40:08;3.40;;;3.40;;
23590;SDS011;11973;52.098;7.582;2023-03-12T06:42:35;3.50;;;3.30;;
23590;SDS011;11973;52.098;7.582;2023-03-12T06:45:01;3.42;;;3.20;;
23590;SDS011;11973;52.098;7.582;2023-03-12T06:47:27;3.50;;;3.25;;
23590;SDS011;11973;52.098;7.582;2023-03-12T06:49:53;3.72;;;3.50;;
23590;SDS011;11973;52.098;7.582;2023-03-12T06:52:19;5.68;;;2.80;;
23590;SDS011;11973;52.098;7.582;2023-03-12T06:54:44;3.00;;;2.80;;
23590;SDS011;11973;52.098;7.582;2023-03-12T06:57:10;3.42;;;2.58;;
23590;SDS011;11973;52.098;7.582;2023-03-12T06:59:36;2.90;;;2.80;;
23590;SDS011;11973;52.098;7.582;2023-03-12T07:02:01;3.08;;;2.65;;
23590;SDS011;11973;52.098;7.582;2023-03-12T07:04:27;3.90;;;3.05;;
23590;SDS011;11973;52.098;7.582;2023-03-12T07:06:53;4.47;;;3.35;;
23590;SDS011;11973;52.098;7.582;2023-03-12T07:09:19;2.72;;;2.65;;
23590;SDS011;11973;52.098;7.582;2023-03-12T07:11:54;2.78;;;2.58;;
23590;SDS011;11973;52.098;7.582;2023-03-12T07:14:20;2.83;;;2.63;;
23590;SDS011;11973;52.098;7.582;2023-03-12T07:16:46;3.25;;;3.05;;
23590;SDS011;11973;52.098;7.582;2023-03-12T07:19:12;2.95;;;2.85;;
23590;SDS011;11973;52.098;7.582;2023-03-12T07:21:37;2.75;;;2.42;;
23590;SDS011;11973;52.098;7.582;2023-03-12T07:24:03;2.42;;;2.42;;
23590;SDS011;11973;52.098;7.582;2023-03-12T07:26:32;2.88;;;2.75;;
23590;SDS011;11973;52.098;7.582;2023-03-12T07:28:59;2.80;;;2.63;;
23590;SDS011;11973;52.098;7.582;2023-03-12T07:31:25;2.75;;;2.60;;
23590;SDS011;11973;52.098;7.582;2023-03-12T07:33:51;4.20;;;2.78;;
23590;SDS011;11973;52.098;7.582;2023-03-12T07:36:16;4.22;;;2.72;;
23590;SDS011;11973;52.098;7.582;2023-03-12T07:38:42;2.20;;;2.20;;
23590;SDS011;11973;52.098;7.582;2023-03-12T07:41:08;2.22;;;2.13;;
23590;SDS011;11973;52.098;7.582;2023-03-12T07:43:34;2.45;;;2.35;;
23590;SDS011;11973;52.098;7.582;2023-03-12T07:45:59;3.33;;;2.90;;
23590;SDS011;11973;52.098;7.582;2023-03-12T07:48:25;2.25;;;2.15;;
23590;SDS011;11973;52.098;7.582;2023-03-12T07:50:51;2.85;;;2.60;;
23590;SDS011;11973;52.098;7.582;2023-03-12T07:53:17;2.35;;;2.35;;
23590;SDS011;11973;52.098;7.582;2023-03-12T07:55:43;2.47;;;2.47;;
23590;SDS011;11973;52.098;7.582;2023-03-12T07:58:10;2.72;;;2.67;;
23590;SDS011;11973;52.098;7.582;2023-03-12T08:00:36;4.80;;;4.50;;
23590;SDS011;11973;52.098;7.582;2023-03-12T08:03:02;5.68;;;5.13;;
23590;SDS011;11973;52.098;7.582;2023-03-12T08:05:29;3.47;;;3.30;;
23590;SDS011;11973;52.098;7.582;2023-03-12T08:07:54;3.03;;;2.80;;
23590;SDS011;11973;52.098;7.582;2023-03-12T08:10:20;3.22;;;3.10;;
23590;SDS011;11973;52.098;7.582;2023-03-12T08:12:46;3.28;;;3.00;;
23590;SDS011;11973;52.098;7.582;2023-03-12T08:15:13;3.92;;;3.50;;
23590;SDS011;11973;52.098;7.582;2023-03-12T08:17:38;2.90;;;2.80;;
23590;SDS011;11973;52.098;7.582;2023-03-12T08:20:05;2.95;;;2.67;;
23590;SDS011;11973;52.098;7.582;2023-03-12T08:22:34;2.28;;;2.28;;
23590;SDS011;11973;52.098;7.582;2023-03-12T08:25:01;2.40;;;2.33;;
23590;SDS011;11973;52.098;7.582;2023-03-12T08:27:27;2.67;;;2.65;;
23590;SDS011;11973;52.098;7.582;2023-03-12T08:29:53;2.75;;;2.63;;
23590;SDS011;11973;52.098;7.582;2023-03-12T08:32:19;1.90;;;1.80;;
23590;SDS011;11973;52.098;7.582;2023-03-12T08:34:44;1.95;;;1.95;;
23590;SDS011;11973;52.098;7.582;2023-03-12T08:37:10;2.10;;;2.00;;
23590;SDS011;11973;52.098;7.582;2023-03-12T08:39:36;2.70;;;2.50;;
23590;SDS011;11973;52.098;7.582;2023-03-12T08:42:02;2.40;;;2.25;;
23590;SDS011;11973;52.098;7.582;2023-03-12T08:44:28;3.67;;;2.10;;
23590;SDS011;11973;52.098;7.582;2023-03-12T08:46:54;3.47;;;2.38;;
23590;SDS011;11973;52.098;7.582;2023-03-12T08:49:20;3.13;;;2.13;;
23590;SDS011;11973;52.098;7.582;2023-03-12T08:51:46;2.75;;;2.63;;
23590;SDS011;11973;52.098;7.582;2023-03-12T08:54:12;2.25;;;2.13;;
23590;SDS011;11973;52.098;7.582;2023-03-12T08:56:38;3.10;;;2.90;;
23590;SDS011;11973;52.098;7.582;2023-03-12T08:59:08;2.80;;;2.67;;
23590;SDS011;11973;52.098;7.582;2023-03-12T09:01:34;2.75;;;2.55;;
23590;SDS011;11973;52.098;7.582;2023-03-12T09:04:01;2.95;;;2.83;;
23590;SDS011;11973;52.098;7.582;2023-03-12T09:06:27;3.88;;;3.67;;
23590;SDS011;11973;52.098;7.582;2023-03-12T09:08:53;4.63;;;4.30;;
23590;SDS011;11973;52.098;7.582;2023-03-12T09:11:19;3.72;;;3.47;;
23590;SDS011;11973;52.098;7.582;2023-03-12T09:13:45;4.03;;;3.70;;
23590;SDS011;11973;52.098;7.582;2023-03-12T09:16:10;4.57;;;4.38;;
23590;SDS011;11973;52.098;7.582;2023-03-12T09:18:36;5.82;;;5.57;;
23590;SDS011;11973;52.098;7.582;2023-03-12T09:21:02;5.40;;;5.05;;
23590;SDS011;11973;52.098;7.582;2023-03-12T09:23:28;5.57;;;5.18;;
23590;SDS011;11973;52.098;7.582;2023-03-12T09:25:54;4.78;;;4.53;;
23590;SDS011;11973;52.098;7.582;2023-03-12T09:28:21;4.78;;;4.45;;
23590;SDS011;11973;52.098;7.582;2023-03-12T09:30:47;11.10;;;9.88;;
23590;SDS011;11973;52.098;7.582;2023-03-12T09:33:12;5.80;;;5.47;;
23590;SDS011;11973;52.098;7.582;2023-03-12T09:35:42;7.43;;;6.78;;
23590;SDS011;11973;52.098;7.582;2023-03-12T09:38:11;7.18;;;6.63;;
23590;SDS011;11973;52.098;7.582;2023-03-12T09:40:37;6.43;;;6.15;;
23590;SDS011;11973;52.098;7.582;2023-03-12T09:43:10;5.05;;;4.45;;
23590;SDS011;11973;52.098;7.582;2023-03-12T09:45:45;6.10;;;5.70;;
23590;SDS011;11973;52.098;7.582;2023-03-12T09:48:13;6.60;;;5.40;;
23590;SDS011;11973;52.098;7.582;2023-03-12T09:50:48;5.13;;;4.63;;
23590;SDS011;11973;52.098;7.582;2023-03-12T09:53:32;5.15;;;4.88;;
23590;SDS011;11973;52.098;7.582;2023-03-12T09:56:08;5.35;;;5.05;;
23590;SDS011;11973;52.098;7.582;2023-03-12T09:58:38;7.43;;;7.13;;
23590;SDS011;11973;52.098;7.582;2023-03-12T10:04:02;7.88;;;7.20;;
23590;SDS011;11973;52.098;7.582;2023-03-12T10:06:56;5.28;;;4.93;;
23590;SDS011;11973;52.098;7.582;2023-03-12T10:12:10;6.55;;;5.95;;
23590;SDS011;11973;52.098;7.582;2023-03-12T10:17:34;7.88;;;7.13;;
23590;SDS011;11973;52.098;7.582;2023-03-12T10:20:26;7.13;;;6.60;;
23590;SDS011;11973;52.098;7.582;2023-03-12T10:23:26;7.30;;;6.55;;
23590;SDS011;11973;52.098;7.582;2023-03-12T10:26:25;7.07;;;6.68;;
23590;SDS011;11973;52.098;7.582;2023-03-12T10:29:21;7.40;;;7.10;;
23590;SDS011;11973;52.098;7.582;2023-03-12T10:34:31;8.52;;;7.82;;
23590;SDS011;11973;52.098;7.582;2023-03-12T10:40:18;11.00;;;9.80;;
23590;SDS011;11973;52.098;7.582;2023-03-12T10:42:46;15.10;;;13.60;;
23590;SDS011;11973;52.098;7.582;2023-03-12T10:48:19;25.38;;;22.85;;
23590;SDS011;11973;52.098;7.582;2023-03-12T10:50:59;16.55;;;15.00;;
23590;SDS011;11973;52.098;7.582;2023-03-12T10:53:33;14.90;;;13.70;;
23590;SDS011;11973;52.098;7.582;2023-03-12T10:58:30;22.92;;;20.75;;
23590;SDS011;11973;52.098;7.582;2023-03-12T11:01:01;16.25;;;14.65;;
23590;SDS011;11973;52.098;7.582;2023-03-12T11:03:29;15.52;;;14.05;;
23590;SDS011;11973;52.098;7.582;2023-03-12T11:05:57;13.75;;;12.38;;
23590;SDS011;11973;52.098;7.582;2023-03-12T11:08:27;16.55;;;14.57;;
23590;SDS011;11973;52.098;7.582;2023-03-12T11:10:57;15.40;;;13.90;;
23590;SDS011;11973;52.098;7.582;2023-03-12T11:16:02;18.73;;;16.85;;
23590;SDS011;11973;52.098;7.582;2023-03-12T11:19:00;21.90;;;19.80;;
23590;SDS011;11973;52.098;7.582;2023-03-12T11:21:28;27.88;;;25.02;;
23590;SDS011;11973;52.098;7.582;2023-03-12T11:32:09;32.38;;;29.20;;
23590;SDS011;11973;52.098;7.582;2023-03-12T11:34:48;26.08;;;23.42;;
23590;SDS011;11973;52.098;7.582;2023-03-12T11:53:17;87.55;;;65.22;;
23590;SDS011;11973;52.098;7.582;2023-03-12T11:58:30;72.10;;;53.50;;
23590;SDS011;11973;52.098;7.582;2023-03-12T12:01:12;67.10;;;51.08;;
23590;SDS011;11973;52.098;7.582;2023-03-12T12:03:54;56.10;;;44.05;;
23590;SDS011;11973;52.098;7.582;2023-03-12T12:31:40;50.80;;;39.97;;
23590;SDS011;11973;52.098;7.582;2023-03-12T12:36:47;46.05;;;37.17;;
23590;SDS011;11973;52.098;7.582;2023-03-12T12:42:01;50.33;;;39.17;;
23590;SDS011;11973;52.098;7.582;2023-03-12T12:44:31;166.52;;;124.38;;
23590;SDS011;11973;52.098;7.582;2023-03-12T12:47:02;111.35;;;90.07;;
23590;SDS011;11973;52.098;7.582;2023-03-12T12:52:24;70.65;;;57.97;;
23590;SDS011;11973;52.098;7.582;2023-03-12T13:00:01;46.70;;;36.78;;
23590;SDS011;11973;52.098;7.582;2023-03-12T13:02:30;46.40;;;36.90;;
23590;SDS011;11973;52.098;7.582;2023-03-12T13:04:58;43.75;;;34.78;;
23590;SDS011;11973;52.098;7.582;2023-03-12T13:09:54;35.85;;;29.20;;
23590;SDS011;11973;52.098;7.582;2023-03-12T13:14:54;34.17;;;27.00;;
23590;SDS011;11973;52.098;7.582;2023-03-12T13:17:26;35.13;;;26.23;;
23590;SDS011;11973;52.098;7.582;2023-03-12T13:28:13;32.00;;;24.85;;
23590;SDS011;11973;52.098;7.582;2023-03-12T13:30:55;31.35;;;23.48;;
23590;SDS011;11973;52.098;7.582;2023-03-12T13:33:39;32.05;;;25.33;;
23590;SDS011;11973;52.098;7.582;2023-03-12T13:41:30;35.42;;;27.90;;
23590;SDS011;11973;52.098;7.582;2023-03-12T13:49:26;33.58;;;24.10;;
23590;SDS011;11973;52.098;7.582;2023-03-12T13:52:18;34.30;;;26.02;;
23590;SDS011;11973;52.098;7.582;2023-03-12T14:02:58;46.67;;;35.58;;
23590;SDS011;11973;52.098;7.582;2023-03-12T14:05:41;35.40;;;28.98;;
23590;SDS011;11973;52.098;7.582;2023-03-12T14:16:23;50.33;;;38.53;;
23590;SDS011;11973;52.098;7.582;2023-03-12T14:18:59;39.97;;;29.75;;
23590;SDS011;11973;52.098;7.582;2023-03-12T14:21:29;40.88;;;30.30;;
23590;SDS011;11973;52.098;7.582;2023-03-12T14:23:59;51.22;;;33.15;;
23590;SDS011;11973;52.098;7.582;2023-03-12T14:26:27;44.63;;;31.77;;
23590;SDS011;11973;52.098;7.582;2023-03-12T14:29:07;52.45;;;35.25;;
23590;SDS011;11973;52.098;7.582;2023-03-12T14:31:37;46.75;;;35.92;;
23590;SDS011;11973;52.098;7.582;2023-03-12T14:37:27;50.53;;;33.20;;
23590;SDS011;11973;52.098;7.582;2023-03-12T14:40:18;52.10;;;38.28;;
23590;SDS011;11973;52.098;7.582;2023-03-12T14:42:47;47.55;;;31.77;;
23590;SDS011;11973;52.098;7.582;2023-03-12T14:45:23;61.13;;;44.70;;
23590;SDS011;11973;52.098;7.582;2023-03-12T14:47:56;43.90;;;27.88;;
23590;SDS011;11973;52.098;7.582;2023-03-12T14:50:27;49.13;;;35.45;;
23590;SDS011;11973;52.098;7.582;2023-03-12T14:56:28;38.05;;;24.88;;
23590;SDS011;11973;52.098;7.582;2023-03-12T14:59:03;42.28;;;31.42;;
23590;SDS011;11973;52.098;7.582;2023-03-12T15:02:09;33.97;;;23.58;;
23590;SDS011;11973;52.098;7.582;2023-03-12T15:04:38;35.17;;;22.33;;
23590;SDS011;11973;52.098;7.582;2023-03-12T15:07:10;29.98;;;20.65;;
23590;SDS011;11973;52.098;7.582;2023-03-12T15:09:40;30.20;;;17.80;;
23590;SDS011;11973;52.098;7.582;2023-03-12T15:14:48;28.08;;;15.07;;
23590;SDS011;11973;52.098;7.582;2023-03-12T15:17:18;22.05;;;14.23;;
23590;SDS011;11973;52.098;7.582;2023-03-12T15:19:47;20.55;;;13.43;;
23590;SDS011;11973;52.098;7.582;2023-03-12T15:22:29;20.67;;;14.98;;
23590;SDS011;11973;52.098;7.582;2023-03-12T15:25:00;29.42;;;19.73;;
23590;SDS011;11973;52.098;7.582;2023-03-12T15:29:54;16.83;;;10.27;;
23590;SDS011;11973;52.098;7.582;2023-03-12T15:32:21;19.30;;;10.45;;
23590;SDS011;11973;52.098;7.582;2023-03-12T15:34:49;17.75;;;9.88;;
23590;SDS011;11973;52.098;7.582;2023-03-12T15:37:28;19.83;;;9.13;;
23590;SDS011;11973;52.098;7.582;2023-03-12T15:40:20;14.48;;;8.60;;
23590;SDS011;11973;52.098;7.582;2023-03-12T15:42:51;14.38;;;7.22;;
23590;SDS011;11973;52.098;7.582;2023-03-12T15:45:23;15.90;;;7.10;;
23590;SDS011;11973;52.098;7.582;2023-03-12T15:47:54;16.42;;;7.28;;
23590;SDS011;11973;52.098;7.582;2023-03-12T15:50:29;13.82;;;6.05;;
23590;SDS011;11973;52.098;7.582;2023-03-12T15:52:58;15.35;;;6.47;;
23590;SDS011;11973;52.098;7.582;2023-03-12T15:55:29;15.57;;;5.72;;
23590;SDS011;11973;52.098;7.582;2023-03-12T15:57:56;21.48;;;6.25;;
23590;SDS011;11973;52.098;7.582;2023-03-12T16:03:15;16.67;;;6.03;;
23590;SDS011;11973;52.098;7.582;2023-03-12T16:05:42;18.88;;;9.75;;
23590;SDS011;11973;52.098;7.582;2023-03-12T16:10:46;18.98;;;8.25;;
23590;SDS011;11973;52.098;7.582;2023-03-12T16:13:13;20.08;;;5.93;;
23590;SDS011;11973;52.098;7.582;2023-03-12T16:15:41;16.38;;;6.53;;
23590;SDS011;11973;52.098;7.582;2023-03-12T16:18:13;14.65;;;5.60;;
23590;SDS011;11973;52.098;7.582;2023-03-12T16:20:41;18.33;;;5.90;;
23590;SDS011;11973;52.098;7.582;2023-03-12T16:23:08;21.45;;;7.85;;
23590;SDS011;11973;52.098;7.582;2023-03-12T16:25:33;19.35;;;6.47;;
23590;SDS011;11973;52.098;7.582;2023-03-12T16:28:01;22.58;;;10.50;;
23590;SDS011;11973;52.098;7.582;2023-03-12T16:30:30;20.30;;;8.13;;
23590;SDS011;11973;52.098;7.582;2023-03-12T16:32:57;15.80;;;6.78;;
23590;SDS011;11973;52.098;7.582;2023-03-12T16:35:29;14.52;;;5.65;;
23590;SDS011;11973;52.098;7.582;2023-03-12T16:37:56;18.75;;;5.93;;
23590;SDS011;11973;52.098;7.582;2023-03-12T16:40:25;19.77;;;6.60;;
23590;SDS011;11973;52.098;7.582;2023-03-12T16:42:59;42.67;;;28.10;;
23590;SDS011;11973;52.098;7.582;2023-03-12T16:45:48;29.10;;;13.75;;
23590;SDS011;11973;52.098;7.582;2023-03-12T16:48:19;22.35;;;11.18;;
23590;SDS011;11973;52.098;7.582;2023-03-12T16:50:49;43.25;;;25.02;;
23590;SDS011;11973;52.098;7.582;2023-03-12T16:53:21;48.85;;;25.83;;
23590;SDS011;11973;52.098;7.582;2023-03-12T16:55:51;25.17;;;10.27;;
23590;SDS011;11973;52.098;7.582;2023-03-12T16:58:22;20.20;;;7.57;;
23590;SDS011;11973;52.098;7.582;2023-03-12T17:00:50;23.75;;;8.55;;
23590;SDS011;11973;52.098;7.582;2023-03-12T17:08:31;27.08;;;7.60;;
23590;SDS011;11973;52.098;7.582;2023-03-12T17:10:56;20.45;;;7.18;;
23590;SDS011;11973;52.098;7.582;2023-03-12T17:13:26;18.67;;;6.85;;
23590;SDS011;11973;52.098;7.582;2023-03-12T17:15:53;21.85;;;6.65;;
23590;SDS011;11973;52.098;7.582;2023-03-12T17:18:19;22.85;;;6.57;;
23590;SDS011;11973;52.098;7.582;2023-03-12T17:20:46;25.23;;;7.90;;
23590;SDS011;11973;52.098;7.582;2023-03-12T17:23:13;25.77;;;7.50;;
23590;SDS011;11973;52.098;7.582;2023-03-12T17:25:40;36.20;;;14.55;;
23590;SDS011;11973;52.098;7.582;2023-03-12T17:28:07;26.65;;;10.10;;
23590;SDS011;11973;52.098;7.582;2023-03-12T17:30:34;25.50;;;8.73;;
23590;SDS011;11973;52.098;7.582;2023-03-12T17:33:09;56.42;;;28.88;;
23590;SDS011;11973;52.098;7.582;2023-03-12T17:35:37;29.05;;;9.50;;
23590;SDS011;11973;52.098;7.582;2023-03-12T17:38:03;23.13;;;7.55;;
23590;SDS011;11973;52.098;7.582;2023-03-12T17:40:30;25.10;;;7.50;;
23590;SDS011;11973;52.098;7.582;2023-03-12T17:45:26;19.13;;;6.25;;
23590;SDS011;11973;52.098;7.582;2023-03-12T17:47:52;27.35;;;6.72;;
23590;SDS011;11973;52.098;7.582;2023-03-12T17:50:18;28.80;;;7.28;;
23590;SDS011;11973;52.098;7.582;2023-03-12T17:52:44;25.75;;;6.78;;
23590;SDS011;11973;52.098;7.582;2023-03-12T17:55:09;24.48;;;6.70;;
23590;SDS011;11973;52.098;7.582;2023-03-12T17:57:37;29.55;;;6.75;;
23590;SDS011;11973;52.098;7.582;2023-03-12T18:00:03;22.38;;;7.63;;
23590;SDS011;11973;52.098;7.582;2023-03-12T18:02:38;25.98;;;6.55;;
23590;SDS011;11973;52.098;7.582;2023-03-12T18:05:05;27.90;;;7.10;;
23590;SDS011;11973;52.098;7.582;2023-03-12T18:07:32;29.10;;;7.00;;
23590;SDS011;11973;52.098;7.582;2023-03-12T18:09:58;22.90;;;7.07;;
23590;SDS011;11973;52.098;7.582;2023-03-12T18:12:24;22.73;;;7.20;;
23590;SDS011;11973;52.098;7.582;2023-03-12T18:14:50;23.50;;;6.57;;
23590;SDS011;11973;52.098;7.582;2023-03-12T18:17:15;24.65;;;8.90;;
23590;SDS011;11973;52.098;7.582;2023-03-12T18:19:41;26.35;;;6.38;;
23590;SDS011;11973;52.098;7.582;2023-03-12T18:22:07;25.85;;;6.43;;
23590;SDS011;11973;52.098;7.582;2023-03-12T18:24:36;17.95;;;5.88;;
23590;SDS011;11973;52.098;7.582;2023-03-12T18:27:01;17.48;;;5.80;;
23590;SDS011;11973;52.098;7.582;2023-03-12T18:29:27;20.42;;;6.20;;
23590;SDS011;11973;52.098;7.582;2023-03-12T18:31:53;15.40;;;5.28;;
23590;SDS011;11973;52.098;7.582;2023-03-12T18:34:19;26.45;;;5.75;;
23590;SDS011;11973;52.098;7.582;2023-03-12T18:36:45;22.33;;;5.95;;
23590;SDS011;11973;52.098;7.582;2023-03-12T18:39:11;21.50;;;6.65;;
23590;SDS011;11973;52.098;7.582;2023-03-12T18:41:36;24.20;;;6.40;;
23590;SDS011;11973;52.098;7.582;2023-03-12T18:44:02;28.95;;;5.85;;
23590;SDS011;11973;52.098;7.582;2023-03-12T18:46:30;22.02;;;5.90;;
23590;SDS011;11973;52.098;7.582;2023-03-12T18:49:13;27.15;;;6.68;;
23590;SDS011;11973;52.098;7.582;2023-03-12T18:51:38;20.60;;;5.88;;
23590;SDS011;11973;52.098;7.582;2023-03-12T18:54:04;28.23;;;7.15;;
23590;SDS011;11973;52.098;7.582;2023-03-12T18:56:30;21.58;;;6.40;;
23590;SDS011;11973;52.098;7.582;2023-03-12T18:58:56;23.85;;;6.13;;
23590;SDS011;11973;52.098;7.582;2023-03-12T19:01:22;22.67;;;6.97;;
23590;SDS011;11973;52.098;7.582;2023-03-12T19:03:47;25.05;;;7.70;;
23590;SDS011;11973;52.098;7.582;2023-03-12T19:06:14;30.50;;;7.60;;
23590;SDS011;11973;52.098;7.582;2023-03-12T19:08:41;26.58;;;7.78;;
23590;SDS011;11973;52.098;7.582;2023-03-12T19:11:09;29.67;;;7.82;;
23590;SDS011;11973;52.098;7.582;2023-03-12T19:13:36;29.83;;;9.10;;
23590;SDS011;11973;52.098;7.582;2023-03-12T19:16:03;29.70;;;8.65;;
23590;SDS011;11973;52.098;7.582;2023-03-12T19:18:32;33.13;;;8.50;;
23590;SDS011;11973;52.098;7.582;2023-03-12T19:20:58;39.75;;;10.48;;
23590;SDS011;11973;52.098;7.582;2023-03-12T19:23:24;40.38;;;11.13;;
23590;SDS011;11973;52.098;7.582;2023-03-12T19:25:49;29.83;;;11.20;;
23590;SDS011;11973;52.098;7.582;2023-03-12T19:28:15;42.83;;;12.23;;
23590;SDS011;11973;52.098;7.582;2023-03-12T19:30:41;28.33;;;9.73;;
23590;SDS011;11973;52.098;7.582;2023-03-12T19:33:07;32.13;;;9.52;;
23590;SDS011;11973;52.098;7.582;2023-03-12T19:35:36;32.90;;;9.70;;
23590;SDS011;11973;52.098;7.582;2023-03-12T19:38:03;35.63;;;8.95;;
23590;SDS011;11973;52.098;7.582;2023-03-12T19:40:30;27.48;;;8.82;;
23590;SDS011;11973;52.098;7.582;2023-03-12T19:42:57;27.20;;;8.50;;
23590;SDS011;11973;52.098;7.582;2023-03-12T19:45:23;29.65;;;7.68;;
23590;SDS011;11973;52.098;7.582;2023-03-12T19:47:48;32.20;;;8.25;;
23590;SDS011;11973;52.098;7.582;2023-03-12T19:50:16;33.15;;;8.25;;
23590;SDS011;11973;52.098;7.582;2023-03-12T19:52:45;35.55;;;8.45;;
23590;SDS011;11973;52.098;7.582;2023-03-12T19:55:12;29.02;;;7.80;;
23590;SDS011;11973;52.098;7.582;2023-03-12T19:57:40;22.85;;;7.35;;
23590;SDS011;11973;52.098;7.582;2023-03-12T20:00:07;28.05;;;6.72;;
23590;SDS011;11973;52.098;7.582;2023-03-12T20:02:35;22.45;;;6.43;;
23590;SDS011;11973;52.098;7.582;2023-03-12T20:05:01;28.63;;;6.93;;
23590;SDS011;11973;52.098;7.582;2023-03-12T20:07:28;30.60;;;6.85;;
23590;SDS011;11973;52.098;7.582;2023-03-12T20:09:53;27.08;;;6.75;;
23590;SDS011;11973;52.098;7.582;2023-03-12T20:12:19;32.65;;;7.00;;
23590;SDS011;11973;52.098;7.582;2023-03-12T20:14:45;23.73;;;6.10;;
23590;SDS011;11973;52.098;7.582;2023-03-12T20:17:11;28.40;;;6.35;;
23590;SDS011;11973;52.098;7.582;2023-03-12T20:19:37;23.63;;;6.20;;
23590;SDS011;11973;52.098;7.582;2023-03-12T20:22:03;26.05;;;5.38;;
23590;SDS011;11973;52.098;7.582;2023-03-12T20:24:30;24.48;;;5.28;;
23590;SDS011;11973;52.098;7.582;2023-03-12T20:26:56;23.88;;;5.57;;
23590;SDS011;11973;52.098;7.582;2023-03-12T20:29:22;20.75;;;5.78;;
23590;SDS011;11973;52.098;7.582;2023-03-12T20:31:48;25.25;;;5.80;;
23590;SDS011;11973;52.098;7.582;2023-03-12T20:34:15;24.52;;;5.72;;
23590;SDS011;11973;52.098;7.582;2023-03-12T20:36:41;24.55;;;5.90;;
23590;SDS011;11973;52.098;7.582;2023-03-12T20:39:09;29.38;;;6.15;;
23590;SDS011;11973;52.098;7.582;2023-03-12T20:41:34;21.42;;;5.75;;
23590;SDS011;11973;52.098;7.582;2023-03-12T20:44:00;27.00;;;6.15;;
23590;SDS011;11973;52.098;7.582;2023-03-12T20:46:26;25.33;;;5.50;;
23590;SDS011;11973;52.098;7.582;2023-03-12T20:48:52;20.20;;;5.97;;
23590;SDS011;11973;52.098;7.582;2023-03-12T20:51:17;20.92;;;5.07;;
23590;SDS011;11973;52.098;7.582;2023-03-12T20:53:43;26.38;;;5.95;;
23590;SDS011;11973;52.098;7.582;2023-03-12T20:56:09;23.20;;;5.60;;
23590;SDS011;11973;52.098;7.582;2023-03-12T20:58:35;27.77;;;5.68;;
23590;SDS011;11973;52.098;7.582;2023-03-12T21:01:01;29.42;;;5.97;;
23590;SDS011;11973;52.098;7.582;2023-03-12T21:03:29;25.35;;;5.55;;
23590;SDS011;11973;52.098;7.582;2023-03-12T21:05:57;27.60;;;5.55;;
23590;SDS011;11973;52.098;7.582;2023-03-12T21:08:25;22.00;;;5.13;;
23590;SDS011;11973;52.098;7.582;2023-03-12T21:10:51;53.05;;;27.45;;
23590;SDS011;11973;52.098;7.582;2023-03-12T21:13:18;19.73;;;5.57;;
23590;SDS011;11973;52.098;7.582;2023-03-12T21:15:45;21.67;;;5.72;;
23590;SDS011;11973;52.098;7.582;2023-03-12T21:18:12;126.20;;;78.25;;
23590;SDS011;11973;52.098;7.582;2023-03-12T21:20:38;26.88;;;10.73;;